DXMG weather

Sansanné-Mango Airport
Mango, Savanes Region, Togo

Public forecast

Using degrees Celsius for public forecast. Weather courtesy of forecast.io.

Closest aviation weather report (METAR) to Sansanné-Mango Airport

Closest report is Niamtougou International Airport, 51.6 nm (95.6 km) SE. Retrieved 2020/02/17 17:00 UTC (59 minutes ago):

DXNG 171700Z 09003KT 030V130 8000 NSC 35/M05 Q1012

Closest aviation forecast (TAF) to Sansanné-Mango Airport

Closest forecast is Niamtougou International Airport, 51.6 nm (95.6 km) SE. Retrieved 2020/02/17 12:21 UTC (6 hours ago):

TAF COR DXNG 171100Z 1712/1812 07015KT 6000 NSC